Christmas Valley, Oregon
Current Conditions -  °F | °C
As of 3:15 PM on Thursday 27 Nov 2014 (Local Time) from KBDN Reporting Station
Clear Clear  
Wind Chill: 40°   Ceiling: Unl
Heat Index: 48°   Visibility: 10mi
Dew Point: 39°   Wind: 25mph
Humidity: 71%   Direction: 200°SSW
Pressure: 29.94"   Gusts: 32mph
Location:  43.24°N, 120.54°W
Report Text: KBDN 272315Z AUTO 20022G28KT 10SM CLR 09/04 A2994 RMK AO2
Loading
Personal Weather Stations






























Interactive Weather Map New forecast layout! Learn more

10-Day Weather Forecast

Advertisements
Track Severe Weather on mobile